sensor_id;sensor_type;location;lat;lon;timestamp;P1;durP1;ratioP1;P2;durP2;ratioP2
77705;SDS011;66874;45.274;5.880;2023-09-19T00:00:59;10.32;;;4.45;;
77705;SDS011;66874;45.274;5.880;2023-09-19T00:03:24;7.30;;;3.97;;
77705;SDS011;66874;45.274;5.880;2023-09-19T00:05:53;6.00;;;3.63;;
77705;SDS011;66874;45.274;5.880;2023-09-19T00:08:20;13.18;;;4.32;;
77705;SDS011;66874;45.274;5.880;2023-09-19T00:10:49;8.77;;;3.70;;
77705;SDS011;66874;45.274;5.880;2023-09-19T00:13:15;5.85;;;3.90;;
77705;SDS011;66874;45.274;5.880;2023-09-19T00:15:42;7.75;;;3.80;;
77705;SDS011;66874;45.274;5.880;2023-09-19T00:18:14;5.90;;;3.55;;
77705;SDS011;66874;45.274;5.880;2023-09-19T00:20:40;7.63;;;3.90;;
77705;SDS011;66874;45.274;5.880;2023-09-19T00:23:07;8.07;;;3.25;;
77705;SDS011;66874;45.274;5.880;2023-09-19T00:25:36;8.55;;;3.92;;
77705;SDS011;66874;45.274;5.880;2023-09-19T00:28:02;7.43;;;3.90;;
77705;SDS011;66874;45.274;5.880;2023-09-19T00:30:28;16.93;;;4.63;;
77705;SDS011;66874;45.274;5.880;2023-09-19T00:32:54;7.18;;;3.30;;
77705;SDS011;66874;45.274;5.880;2023-09-19T00:35:22;7.22;;;3.50;;
77705;SDS011;66874;45.274;5.880;2023-09-19T00:37:52;8.30;;;3.40;;
77705;SDS011;66874;45.274;5.880;2023-09-19T00:40:18;5.80;;;3.90;;
77705;SDS011;66874;45.274;5.880;2023-09-19T00:42:44;9.05;;;4.03;;
77705;SDS011;66874;45.274;5.880;2023-09-19T00:45:11;6.75;;;3.50;;
77705;SDS011;66874;45.274;5.880;2023-09-19T00:47:38;9.73;;;4.30;;
77705;SDS011;66874;45.274;5.880;2023-09-19T00:50:09;9.50;;;3.95;;
77705;SDS011;66874;45.274;5.880;2023-09-19T00:52:39;7.18;;;3.97;;
77705;SDS011;66874;45.274;5.880;2023-09-19T00:55:05;10.48;;;4.28;;
77705;SDS011;66874;45.274;5.880;2023-09-19T00:57:32;7.30;;;3.97;;
77705;SDS011;66874;45.274;5.880;2023-09-19T00:59:58;16.33;;;4.68;;
77705;SDS011;66874;45.274;5.880;2023-09-19T01:02:25;10.23;;;4.45;;
77705;SDS011;66874;45.274;5.880;2023-09-19T01:04:55;8.15;;;3.97;;
77705;SDS011;66874;45.274;5.880;2023-09-19T01:07:20;5.68;;;3.88;;
77705;SDS011;66874;45.274;5.880;2023-09-19T01:09:47;10.38;;;3.72;;
77705;SDS011;66874;45.274;5.880;2023-09-19T01:12:13;7.05;;;3.78;;
77705;SDS011;66874;45.274;5.880;2023-09-19T01:14:47;13.93;;;3.85;;
77705;SDS011;66874;45.274;5.880;2023-09-19T01:17:39;8.50;;;3.40;;
77705;SDS011;66874;45.274;5.880;2023-09-19T01:20:21;6.93;;;3.75;;
77705;SDS011;66874;45.274;5.880;2023-09-19T01:22:56;9.07;;;4.15;;
77705;SDS011;66874;45.274;5.880;2023-09-19T01:30:57;7.30;;;4.05;;
77705;SDS011;66874;45.274;5.880;2023-09-19T01:33:25;5.72;;;2.88;;
77705;SDS011;66874;45.274;5.880;2023-09-19T01:35:51;6.57;;;3.00;;
77705;SDS011;66874;45.274;5.880;2023-09-19T01:38:18;5.85;;;3.28;;
77705;SDS011;66874;45.274;5.880;2023-09-19T01:40:47;8.13;;;3.35;;
77705;SDS011;66874;45.274;5.880;2023-09-19T01:43:33;5.38;;;3.22;;
77705;SDS011;66874;45.274;5.880;2023-09-19T01:46:12;7.18;;;3.35;;
77705;SDS011;66874;45.274;5.880;2023-09-19T01:48:49;4.87;;;3.03;;
77705;SDS011;66874;45.274;5.880;2023-09-19T01:52:02;8.32;;;3.28;;
77705;SDS011;66874;45.274;5.880;2023-09-19T01:54:32;7.28;;;3.03;;
77705;SDS011;66874;45.274;5.880;2023-09-19T01:57:05;4.45;;;2.60;;
77705;SDS011;66874;45.274;5.880;2023-09-19T01:59:43;7.55;;;3.10;;
77705;SDS011;66874;45.274;5.880;2023-09-19T02:02:13;5.28;;;3.13;;
77705;SDS011;66874;45.274;5.880;2023-09-19T02:04:41;5.97;;;3.30;;
77705;SDS011;66874;45.274;5.880;2023-09-19T02:07:07;8.63;;;3.28;;
77705;SDS011;66874;45.274;5.880;2023-09-19T02:09:33;6.15;;;3.80;;
77705;SDS011;66874;45.274;5.880;2023-09-19T02:12:00;6.55;;;4.07;;
77705;SDS011;66874;45.274;5.880;2023-09-19T02:14:29;7.20;;;3.28;;
77705;SDS011;66874;45.274;5.880;2023-09-19T02:16:54;5.82;;;3.45;;
77705;SDS011;66874;45.274;5.880;2023-09-19T02:19:21;6.15;;;3.40;;
77705;SDS011;66874;45.274;5.880;2023-09-19T02:21:46;6.63;;;3.55;;
77705;SDS011;66874;45.274;5.880;2023-09-19T02:24:13;7.60;;;3.40;;
77705;SDS011;66874;45.274;5.880;2023-09-19T02:26:40;5.37;;;2.93;;
77705;SDS011;66874;45.274;5.880;2023-09-19T02:29:05;9.50;;;3.20;;
77705;SDS011;66874;45.274;5.880;2023-09-19T02:31:31;5.60;;;3.60;;
77705;SDS011;66874;45.274;5.880;2023-09-19T02:33:56;7.65;;;3.20;;
77705;SDS011;66874;45.274;5.880;2023-09-19T02:36:22;5.35;;;3.15;;
77705;SDS011;66874;45.274;5.880;2023-09-19T02:38:48;8.75;;;3.25;;
77705;SDS011;66874;45.274;5.880;2023-09-19T02:41:14;8.32;;;3.40;;
77705;SDS011;66874;45.274;5.880;2023-09-19T02:43:39;9.52;;;2.88;;
77705;SDS011;66874;45.274;5.880;2023-09-19T02:46:05;3.65;;;2.42;;
77705;SDS011;66874;45.274;5.880;2023-09-19T02:48:30;9.35;;;3.95;;
77705;SDS011;66874;45.274;5.880;2023-09-19T02:50:57;10.98;;;3.63;;
77705;SDS011;66874;45.274;5.880;2023-09-19T02:53:22;6.93;;;3.08;;
77705;SDS011;66874;45.274;5.880;2023-09-19T02:55:49;7.90;;;3.20;;
77705;SDS011;66874;45.274;5.880;2023-09-19T02:58:14;4.40;;;2.90;;
77705;SDS011;66874;45.274;5.880;2023-09-19T03:00:40;8.00;;;3.17;;
77705;SDS011;66874;45.274;5.880;2023-09-19T03:03:07;7.18;;;3.22;;
77705;SDS011;66874;45.274;5.880;2023-09-19T03:05:33;11.65;;;4.80;;
77705;SDS011;66874;45.274;5.880;2023-09-19T03:07:59;7.25;;;3.25;;
77705;SDS011;66874;45.274;5.880;2023-09-19T03:10:26;13.77;;;3.50;;
77705;SDS011;66874;45.274;5.880;2023-09-19T03:12:53;8.75;;;3.90;;
77705;SDS011;66874;45.274;5.880;2023-09-19T03:15:19;13.18;;;3.53;;
77705;SDS011;66874;45.274;5.880;2023-09-19T03:17:45;5.90;;;3.42;;
77705;SDS011;66874;45.274;5.880;2023-09-19T03:20:12;6.68;;;3.65;;
77705;SDS011;66874;45.274;5.880;2023-09-19T03:22:39;5.38;;;3.33;;
77705;SDS011;66874;45.274;5.880;2023-09-19T03:25:05;6.88;;;3.38;;
77705;SDS011;66874;45.274;5.880;2023-09-19T03:27:36;5.50;;;3.05;;
77705;SDS011;66874;45.274;5.880;2023-09-19T03:30:02;9.18;;;3.72;;
77705;SDS011;66874;45.274;5.880;2023-09-19T03:32:32;7.30;;;3.67;;
77705;SDS011;66874;45.274;5.880;2023-09-19T03:34:57;9.52;;;3.33;;
77705;SDS011;66874;45.274;5.880;2023-09-19T03:37:23;7.95;;;3.63;;
77705;SDS011;66874;45.274;5.880;2023-09-19T03:39:48;5.95;;;3.60;;
77705;SDS011;66874;45.274;5.880;2023-09-19T03:42:14;5.68;;;3.15;;
77705;SDS011;66874;45.274;5.880;2023-09-19T03:44:39;10.25;;;3.42;;
77705;SDS011;66874;45.274;5.880;2023-09-19T03:47:05;7.47;;;3.40;;
77705;SDS011;66874;45.274;5.880;2023-09-19T03:49:32;7.75;;;4.05;;
77705;SDS011;66874;45.274;5.880;2023-09-19T03:51:57;7.03;;;4.32;;
77705;SDS011;66874;45.274;5.880;2023-09-19T03:54:22;7.88;;;3.83;;
77705;SDS011;66874;45.274;5.880;2023-09-19T03:56:48;8.82;;;3.88;;
77705;SDS011;66874;45.274;5.880;2023-09-19T03:59:13;11.63;;;4.43;;
77705;SDS011;66874;45.274;5.880;2023-09-19T04:01:38;7.57;;;4.25;;
77705;SDS011;66874;45.274;5.880;2023-09-19T04:04:04;11.57;;;4.85;;
77705;SDS011;66874;45.274;5.880;2023-09-19T04:06:33;8.23;;;4.50;;
77705;SDS011;66874;45.274;5.880;2023-09-19T04:09:00;8.35;;;4.00;;
77705;SDS011;66874;45.274;5.880;2023-09-19T04:11:26;9.77;;;4.57;;
77705;SDS011;66874;45.274;5.880;2023-09-19T04:13:51;14.50;;;5.22;;
77705;SDS011;66874;45.274;5.880;2023-09-19T04:16:16;22.63;;;5.30;;
77705;SDS011;66874;45.274;5.880;2023-09-19T04:18:42;13.07;;;5.22;;
77705;SDS011;66874;45.274;5.880;2023-09-19T04:21:08;25.15;;;5.25;;
77705;SDS011;66874;45.274;5.880;2023-09-19T04:23:34;9.10;;;4.05;;
77705;SDS011;66874;45.274;5.880;2023-09-19T04:25:59;11.00;;;5.10;;
77705;SDS011;66874;45.274;5.880;2023-09-19T04:28:25;90.35;;;9.20;;
77705;SDS011;66874;45.274;5.880;2023-09-19T04:30:52;53.67;;;6.43;;
77705;SDS011;66874;45.274;5.880;2023-09-19T04:33:18;42.05;;;6.15;;
77705;SDS011;66874;45.274;5.880;2023-09-19T04:35:43;29.58;;;6.65;;
77705;SDS011;66874;45.274;5.880;2023-09-19T04:38:09;25.58;;;7.45;;
77705;SDS011;66874;45.274;5.880;2023-09-19T04:40:34;25.92;;;6.80;;
77705;SDS011;66874;45.274;5.880;2023-09-19T04:43:00;18.63;;;6.65;;
77705;SDS011;66874;45.274;5.880;2023-09-19T04:45:26;25.05;;;7.75;;
77705;SDS011;66874;45.274;5.880;2023-09-19T04:47:53;31.20;;;8.93;;
77705;SDS011;66874;45.274;5.880;2023-09-19T04:50:19;29.45;;;8.98;;
77705;SDS011;66874;45.274;5.880;2023-09-19T04:52:48;27.65;;;7.25;;
77705;SDS011;66874;45.274;5.880;2023-09-19T04:55:15;16.10;;;5.75;;
77705;SDS011;66874;45.274;5.880;2023-09-19T04:57:49;16.15;;;6.40;;
77705;SDS011;66874;45.274;5.880;2023-09-19T05:00:19;13.43;;;5.55;;
77705;SDS011;66874;45.274;5.880;2023-09-19T05:02:51;12.40;;;5.03;;
77705;SDS011;66874;45.274;5.880;2023-09-19T05:05:17;10.57;;;5.20;;
77705;SDS011;66874;45.274;5.880;2023-09-19T05:07:44;8.05;;;4.68;;
77705;SDS011;66874;45.274;5.880;2023-09-19T05:10:10;11.87;;;4.77;;
77705;SDS011;66874;45.274;5.880;2023-09-19T05:12:36;7.57;;;4.15;;
77705;SDS011;66874;45.274;5.880;2023-09-19T05:15:02;8.85;;;4.18;;
77705;SDS011;66874;45.274;5.880;2023-09-19T05:17:29;11.25;;;4.45;;
77705;SDS011;66874;45.274;5.880;2023-09-19T05:19:54;8.27;;;4.80;;
77705;SDS011;66874;45.274;5.880;2023-09-19T05:22:20;7.88;;;4.30;;
77705;SDS011;66874;45.274;5.880;2023-09-19T05:24:45;8.85;;;5.25;;
77705;SDS011;66874;45.274;5.880;2023-09-19T05:27:14;13.50;;;4.80;;
77705;SDS011;66874;45.274;5.880;2023-09-19T05:29:42;6.97;;;4.18;;
77705;SDS011;66874;45.274;5.880;2023-09-19T05:32:09;8.48;;;4.28;;
77705;SDS011;66874;45.274;5.880;2023-09-19T05:34:35;9.20;;;4.68;;
77705;SDS011;66874;45.274;5.880;2023-09-19T05:37:01;6.50;;;4.45;;
77705;SDS011;66874;45.274;5.880;2023-09-19T05:39:27;7.63;;;4.50;;
77705;SDS011;66874;45.274;5.880;2023-09-19T05:41:52;10.50;;;4.80;;
77705;SDS011;66874;45.274;5.880;2023-09-19T05:44:18;11.38;;;5.00;;
77705;SDS011;66874;45.274;5.880;2023-09-19T05:46:43;10.38;;;5.13;;
77705;SDS011;66874;45.274;5.880;2023-09-19T05:49:10;14.30;;;5.67;;
77705;SDS011;66874;45.274;5.880;2023-09-19T05:51:35;8.73;;;5.38;;
77705;SDS011;66874;45.274;5.880;2023-09-19T05:54:01;8.88;;;5.20;;
77705;SDS011;66874;45.274;5.880;2023-09-19T05:56:26;8.63;;;5.90;;
77705;SDS011;66874;45.274;5.880;2023-09-19T05:58:52;12.60;;;5.05;;
77705;SDS011;66874;45.274;5.880;2023-09-19T06:01:18;11.05;;;5.45;;
77705;SDS011;66874;45.274;5.880;2023-09-19T06:03:45;7.43;;;5.07;;
77705;SDS011;66874;45.274;5.880;2023-09-19T06:06:10;9.88;;;5.10;;
77705;SDS011;66874;45.274;5.880;2023-09-19T06:08:35;11.02;;;4.63;;
77705;SDS011;66874;45.274;5.880;2023-09-19T06:11:01;6.93;;;5.13;;
77705;SDS011;66874;45.274;5.880;2023-09-19T06:13:30;10.00;;;5.70;;
77705;SDS011;66874;45.274;5.880;2023-09-19T06:15:58;9.55;;;5.30;;
77705;SDS011;66874;45.274;5.880;2023-09-19T06:18:28;7.25;;;4.95;;
77705;SDS011;66874;45.274;5.880;2023-09-19T06:20:54;6.45;;;4.53;;
77705;SDS011;66874;45.274;5.880;2023-09-19T06:23:20;8.13;;;3.45;;
77705;SDS011;66874;45.274;5.880;2023-09-19T06:25:46;5.43;;;3.55;;
77705;SDS011;66874;45.274;5.880;2023-09-19T06:28:11;4.28;;;2.70;;
77705;SDS011;66874;45.274;5.880;2023-09-19T06:30:37;6.70;;;2.70;;
77705;SDS011;66874;45.274;5.880;2023-09-19T06:33:05;5.88;;;2.60;;
77705;SDS011;66874;45.274;5.880;2023-09-19T06:35:32;3.97;;;3.10;;
77705;SDS011;66874;45.274;5.880;2023-09-19T06:37:58;10.15;;;3.00;;
77705;SDS011;66874;45.274;5.880;2023-09-19T06:40:24;9.20;;;4.22;;
77705;SDS011;66874;45.274;5.880;2023-09-19T06:42:52;7.65;;;3.13;;
77705;SDS011;66874;45.274;5.880;2023-09-19T06:45:19;4.80;;;2.92;;
77705;SDS011;66874;45.274;5.880;2023-09-19T06:47:48;5.13;;;2.80;;
77705;SDS011;66874;45.274;5.880;2023-09-19T06:50:15;6.72;;;3.08;;
77705;SDS011;66874;45.274;5.880;2023-09-19T06:52:40;7.80;;;3.40;;
77705;SDS011;66874;45.274;5.880;2023-09-19T06:55:06;5.43;;;2.58;;
77705;SDS011;66874;45.274;5.880;2023-09-19T06:57:32;3.55;;;2.28;;
77705;SDS011;66874;45.274;5.880;2023-09-19T06:59:57;11.63;;;3.30;;
77705;SDS011;66874;45.274;5.880;2023-09-19T12:00:22;2.08;;;0.90;;
77705;SDS011;66874;45.274;5.880;2023-09-19T12:02:47;1.90;;;1.37;;
77705;SDS011;66874;45.274;5.880;2023-09-19T12:05:27;2.53;;;0.85;;
77705;SDS011;66874;45.274;5.880;2023-09-19T12:07:54;2.28;;;0.93;;
77705;SDS011;66874;45.274;5.880;2023-09-19T12:10:19;1.17;;;0.90;;
77705;SDS011;66874;45.274;5.880;2023-09-19T12:12:48;1.63;;;1.10;;
77705;SDS011;66874;45.274;5.880;2023-09-19T12:15:24;2.95;;;1.85;;
77705;SDS011;66874;45.274;5.880;2023-09-19T12:17:59;1.65;;;1.10;;
77705;SDS011;66874;45.274;5.880;2023-09-19T12:20:25;6.55;;;1.52;;
77705;SDS011;66874;45.274;5.880;2023-09-19T12:23:12;3.33;;;1.35;;
77705;SDS011;66874;45.274;5.880;2023-09-19T12:25:43;3.22;;;0.80;;
77705;SDS011;66874;45.274;5.880;2023-09-19T12:28:12;1.60;;;0.80;;
77705;SDS011;66874;45.274;5.880;2023-09-19T12:30:38;0.97;;;0.90;;
77705;SDS011;66874;45.274;5.880;2023-09-19T12:33:14;1.52;;;1.00;;
77705;SDS011;66874;45.274;5.880;2023-09-19T12:35:41;1.25;;;0.95;;
77705;SDS011;66874;45.274;5.880;2023-09-19T12:38:10;1.92;;;0.98;;
77705;SDS011;66874;45.274;5.880;2023-09-19T12:40:37;2.30;;;1.20;;
77705;SDS011;66874;45.274;5.880;2023-09-19T12:43:06;1.15;;;1.00;;
77705;SDS011;66874;45.274;5.880;2023-09-19T12:45:32;4.28;;;1.30;;
77705;SDS011;66874;45.274;5.880;2023-09-19T12:48:23;3.40;;;0.90;;
77705;SDS011;66874;45.274;5.880;2023-09-19T12:51:08;1.45;;;1.00;;
77705;SDS011;66874;45.274;5.880;2023-09-19T12:53:37;1.70;;;0.80;;
77705;SDS011;66874;45.274;5.880;2023-09-19T12:56:17;1.00;;;0.90;;
77705;SDS011;66874;45.274;5.880;2023-09-19T13:01:24;0.70;;;0.70;;
77705;SDS011;66874;45.274;5.880;2023-09-19T13:06:38;1.27;;;0.90;;
77705;SDS011;66874;45.274;5.880;2023-09-19T13:09:08;1.40;;;1.05;;
77705;SDS011;66874;45.274;5.880;2023-09-19T13:11:37;1.30;;;0.85;;
77705;SDS011;66874;45.274;5.880;2023-09-19T13:16:56;1.55;;;1.10;;
77705;SDS011;66874;45.274;5.880;2023-09-19T13:22:39;1.13;;;1.02;;
77705;SDS011;66874;45.274;5.880;2023-09-19T13:25:17;4.20;;;0.90;;
77705;SDS011;66874;45.274;5.880;2023-09-19T13:27:54;2.60;;;0.90;;
77705;SDS011;66874;45.274;5.880;2023-09-19T13:30:24;2.00;;;0.93;;
77705;SDS011;66874;45.274;5.880;2023-09-19T13:32:52;2.40;;;0.77;;
77705;SDS011;66874;45.274;5.880;2023-09-19T13:35:30;0.80;;;0.80;;
77705;SDS011;66874;45.274;5.880;2023-09-19T13:37:57;3.47;;;0.95;;
77705;SDS011;66874;45.274;5.880;2023-09-19T13:40:23;1.03;;;0.90;;
77705;SDS011;66874;45.274;5.880;2023-09-19T13:42:56;1.63;;;0.70;;
77705;SDS011;66874;45.274;5.880;2023-09-19T13:45:22;1.02;;;0.73;;
77705;SDS011;66874;45.274;5.880;2023-09-19T13:47:56;1.20;;;0.70;;
77705;SDS011;66874;45.274;5.880;2023-09-19T13:50:21;0.90;;;0.80;;
77705;SDS011;66874;45.274;5.880;2023-09-19T13:52:51;0.85;;;0.70;;
77705;SDS011;66874;45.274;5.880;2023-09-19T13:55:19;2.38;;;0.60;;
77705;SDS011;66874;45.274;5.880;2023-09-19T13:57:47;0.70;;;0.70;;
77705;SDS011;66874;45.274;5.880;2023-09-19T14:00:19;1.95;;;0.70;;
77705;SDS011;66874;45.274;5.880;2023-09-19T14:02:46;0.77;;;0.70;;
77705;SDS011;66874;45.274;5.880;2023-09-19T14:05:13;0.82;;;0.82;;
77705;SDS011;66874;45.274;5.880;2023-09-19T14:07:40;1.38;;;0.90;;
77705;SDS011;66874;45.274;5.880;2023-09-19T14:10:06;1.52;;;0.88;;
77705;SDS011;66874;45.274;5.880;2023-09-19T14:12:33;2.88;;;1.00;;
77705;SDS011;66874;45.274;5.880;2023-09-19T14:14:59;0.70;;;0.70;;
77705;SDS011;66874;45.274;5.880;2023-09-19T14:17:25;1.83;;;1.20;;
77705;SDS011;66874;45.274;5.880;2023-09-19T14:19:51;2.72;;;0.85;;
77705;SDS011;66874;45.274;5.880;2023-09-19T14:22:17;2.77;;;1.03;;
77705;SDS011;66874;45.274;5.880;2023-09-19T14:24:51;3.65;;;0.90;;
77705;SDS011;66874;45.274;5.880;2023-09-19T14:27:18;1.17;;;0.90;;
77705;SDS011;66874;45.274;5.880;2023-09-19T14:29:46;2.05;;;1.00;;
77705;SDS011;66874;45.274;5.880;2023-09-19T14:32:12;1.17;;;0.90;;
77705;SDS011;66874;45.274;5.880;2023-09-19T14:34:41;1.33;;;0.90;;
77705;SDS011;66874;45.274;5.880;2023-09-19T14:37:07;1.05;;;0.95;;
77705;SDS011;66874;45.274;5.880;2023-09-19T14:39:33;0.85;;;0.70;;
77705;SDS011;66874;45.274;5.880;2023-09-19T14:42:02;1.33;;;0.80;;
77705;SDS011;66874;45.274;5.880;2023-09-19T14:44:30;0.90;;;0.80;;
77705;SDS011;66874;45.274;5.880;2023-09-19T14:46:56;1.30;;;0.87;;
77705;SDS011;66874;45.274;5.880;2023-09-19T14:49:24;2.47;;;0.80;;
77705;SDS011;66874;45.274;5.880;2023-09-19T14:51:50;2.45;;;0.80;;
77705;SDS011;66874;45.274;5.880;2023-09-19T14:54:17;1.27;;;0.65;;
77705;SDS011;66874;45.274;5.880;2023-09-19T14:56:44;1.90;;;0.95;;
77705;SDS011;66874;45.274;5.880;2023-09-19T14:59:10;1.55;;;0.70;;
77705;SDS011;66874;45.274;5.880;2023-09-19T15:01:36;1.67;;;0.85;;
77705;SDS011;66874;45.274;5.880;2023-09-19T15:04:05;2.58;;;0.98;;
77705;SDS011;66874;45.274;5.880;2023-09-19T15:06:31;2.25;;;0.90;;
77705;SDS011;66874;45.274;5.880;2023-09-19T15:08:57;2.13;;;1.07;;
77705;SDS011;66874;45.274;5.880;2023-09-19T15:11:23;5.15;;;2.15;;
77705;SDS011;66874;45.274;5.880;2023-09-19T15:13:51;17.55;;;6.65;;
77705;SDS011;66874;45.274;5.880;2023-09-19T15:16:18;2.40;;;1.50;;
77705;SDS011;66874;45.274;5.880;2023-09-19T15:18:44;3.58;;;1.15;;
77705;SDS011;66874;45.274;5.880;2023-09-19T15:21:13;6.10;;;1.77;;
77705;SDS011;66874;45.274;5.880;2023-09-19T15:23:41;27.67;;;9.75;;
77705;SDS011;66874;45.274;5.880;2023-09-19T15:26:09;39.67;;;15.25;;
77705;SDS011;66874;45.274;5.880;2023-09-19T15:28:39;2.88;;;1.55;;
77705;SDS011;66874;45.274;5.880;2023-09-19T15:31:05;1.50;;;0.88;;
77705;SDS011;66874;45.274;5.880;2023-09-19T15:33:36;2.58;;;0.73;;
77705;SDS011;66874;45.274;5.880;2023-09-19T15:40:59;2.20;;;0.93;;
77705;SDS011;66874;45.274;5.880;2023-09-19T15:43:25;3.10;;;0.90;;
77705;SDS011;66874;45.274;5.880;2023-09-19T15:45:51;7.10;;;2.35;;
77705;SDS011;66874;45.274;5.880;2023-09-19T15:48:17;2.30;;;1.00;;
77705;SDS011;66874;45.274;5.880;2023-09-19T15:50:43;0.90;;;0.80;;
77705;SDS011;66874;45.274;5.880;2023-09-19T15:53:12;1.05;;;0.82;;
77705;SDS011;66874;45.274;5.880;2023-09-19T15:55:38;0.60;;;0.60;;
77705;SDS011;66874;45.274;5.880;2023-09-19T15:58:08;1.65;;;0.90;;
77705;SDS011;66874;45.274;5.880;2023-09-19T16:00:34;0.80;;;0.80;;
77705;SDS011;66874;45.274;5.880;2023-09-19T16:03:04;1.15;;;0.63;;
77705;SDS011;66874;45.274;5.880;2023-09-19T16:05:36;1.27;;;0.93;;
77705;SDS011;66874;45.274;5.880;2023-09-19T16:08:04;2.25;;;0.93;;
77705;SDS011;66874;45.274;5.880;2023-09-19T16:12:59;1.48;;;0.73;;
77705;SDS011;66874;45.274;5.880;2023-09-19T16:15:24;1.80;;;0.70;;
77705;SDS011;66874;45.274;5.880;2023-09-19T16:17:50;1.70;;;0.82;;
77705;SDS011;66874;45.274;5.880;2023-09-19T16:20:16;1.40;;;0.90;;
77705;SDS011;66874;45.274;5.880;2023-09-19T16:22:41;1.53;;;0.60;;
77705;SDS011;66874;45.274;5.880;2023-09-19T16:25:10;2.15;;;1.00;;
77705;SDS011;66874;45.274;5.880;2023-09-19T16:27:36;2.75;;;0.98;;
77705;SDS011;66874;45.274;5.880;2023-09-19T16:30:02;1.97;;;0.90;;
77705;SDS011;66874;45.274;5.880;2023-09-19T16:32:28;0.70;;;0.70;;
77705;SDS011;66874;45.274;5.880;2023-09-19T16:34:53;2.10;;;1.00;;
77705;SDS011;66874;45.274;5.880;2023-09-19T16:37:18;5.20;;;1.17;;
77705;SDS011;66874;45.274;5.880;2023-09-19T16:39:44;1.43;;;0.70;;
77705;SDS011;66874;45.274;5.880;2023-09-19T16:42:09;1.53;;;0.93;;
77705;SDS011;66874;45.274;5.880;2023-09-19T16:44:37;3.90;;;0.80;;
77705;SDS011;66874;45.274;5.880;2023-09-19T16:47:02;1.43;;;0.83;;
77705;SDS011;66874;45.274;5.880;2023-09-19T16:49:28;4.50;;;1.13;;
77705;SDS011;66874;45.274;5.880;2023-09-19T16:54:20;1.80;;;1.07;;
77705;SDS011;66874;45.274;5.880;2023-09-19T16:56:45;1.52;;;0.88;;
77705;SDS011;66874;45.274;5.880;2023-09-19T16:59:11;2.42;;;1.30;;
77705;SDS011;66874;45.274;5.880;2023-09-19T17:01:36;1.92;;;1.00;;
77705;SDS011;66874;45.274;5.880;2023-09-19T17:04:02;3.38;;;1.00;;
77705;SDS011;66874;45.274;5.880;2023-09-19T17:06:27;2.38;;;0.80;;
77705;SDS011;66874;45.274;5.880;2023-09-19T17:08:53;0.80;;;0.73;;
77705;SDS011;66874;45.274;5.880;2023-09-19T17:11:19;2.15;;;1.00;;
77705;SDS011;66874;45.274;5.880;2023-09-19T17:13:46;2.90;;;0.82;;
77705;SDS011;66874;45.274;5.880;2023-09-19T17:16:15;3.92;;;1.00;;
77705;SDS011;66874;45.274;5.880;2023-09-19T17:18:43;1.77;;;1.10;;
77705;SDS011;66874;45.274;5.880;2023-09-19T17:21:10;5.15;;;1.02;;
77705;SDS011;66874;45.274;5.880;2023-09-19T17:23:38;1.10;;;0.93;;
77705;SDS011;66874;45.274;5.880;2023-09-19T17:26:05;4.68;;;1.08;;
77705;SDS011;66874;45.274;5.880;2023-09-19T17:28:46;2.10;;;1.08;;
77705;SDS011;66874;45.274;5.880;2023-09-19T17:31:12;2.38;;;1.50;;
77705;SDS011;66874;45.274;5.880;2023-09-19T17:33:40;1.77;;;1.30;;
77705;SDS011;66874;45.274;5.880;2023-09-19T17:38:39;4.78;;;1.50;;
77705;SDS011;66874;45.274;5.880;2023-09-19T17:41:06;1.38;;;1.17;;
77705;SDS011;66874;45.274;5.880;2023-09-19T17:43:35;4.05;;;1.42;;
77705;SDS011;66874;45.274;5.880;2023-09-19T17:46:05;4.00;;;1.38;;
77705;SDS011;66874;45.274;5.880;2023-09-19T17:48:47;2.35;;;1.17;;
77705;SDS011;66874;45.274;5.880;2023-09-19T17:51:14;3.13;;;1.40;;
77705;SDS011;66874;45.274;5.880;2023-09-19T17:53:42;4.38;;;1.40;;
77705;SDS011;66874;45.274;5.880;2023-09-19T17:56:09;1.90;;;1.08;;
77705;SDS011;66874;45.274;5.880;2023-09-19T17:58:36;2.22;;;0.90;;
77705;SDS011;66874;45.274;5.880;2023-09-19T18:01:16;1.63;;;1.13;;
77705;SDS011;66874;45.274;5.880;2023-09-19T18:03:45;1.65;;;1.00;;
77705;SDS011;66874;45.274;5.880;2023-09-19T18:06:11;3.00;;;1.00;;
77705;SDS011;66874;45.274;5.880;2023-09-19T18:11:04;3.83;;;1.08;;
77705;SDS011;66874;45.274;5.880;2023-09-19T18:13:39;2.08;;;1.00;;
77705;SDS011;66874;45.274;5.880;2023-09-19T18:16:06;1.65;;;0.65;;
77705;SDS011;66874;45.274;5.880;2023-09-19T18:18:35;3.80;;;1.00;;
77705;SDS011;66874;45.274;5.880;2023-09-19T18:21:03;1.98;;;0.95;;
77705;SDS011;66874;45.274;5.880;2023-09-19T18:23:29;2.25;;;1.27;;
77705;SDS011;66874;45.274;5.880;2023-09-19T18:25:59;1.20;;;1.10;;
77705;SDS011;66874;45.274;5.880;2023-09-19T18:28:25;2.42;;;1.00;;
77705;SDS011;66874;45.274;5.880;2023-09-19T18:30:51;4.63;;;1.17;;
77705;SDS011;66874;45.274;5.880;2023-09-19T18:33:17;4.15;;;1.00;;
77705;SDS011;66874;45.274;5.880;2023-09-19T18:35:43;2.05;;;1.13;;
77705;SDS011;66874;45.274;5.880;2023-09-19T18:38:08;7.05;;;1.27;;
77705;SDS011;66874;45.274;5.880;2023-09-19T18:40:35;5.00;;;0.88;;
77705;SDS011;66874;45.274;5.880;2023-09-19T18:43:02;2.90;;;1.42;;
77705;SDS011;66874;45.274;5.880;2023-09-19T18:45:28;1.93;;;1.00;;
77705;SDS011;66874;45.274;5.880;2023-09-19T18:47:56;6.53;;;1.30;;
77705;SDS011;66874;45.274;5.880;2023-09-19T18:50:22;7.05;;;1.10;;
77705;SDS011;66874;45.274;5.880;2023-09-19T18:52:48;2.20;;;1.08;;
77705;SDS011;66874;45.274;5.880;2023-09-19T18:55:15;2.88;;;1.05;;
77705;SDS011;66874;45.274;5.880;2023-09-19T18:57:43;3.17;;;1.13;;
77705;SDS011;66874;45.274;5.880;2023-09-19T19:00:08;1.73;;;1.10;;
77705;SDS011;66874;45.274;5.880;2023-09-19T19:02:35;3.17;;;0.97;;
77705;SDS011;66874;45.274;5.880;2023-09-19T19:05:03;2.25;;;1.17;;
77705;SDS011;66874;45.274;5.880;2023-09-19T19:07:35;3.30;;;0.82;;
77705;SDS011;66874;45.274;5.880;2023-09-19T19:10:02;2.15;;;0.85;;
77705;SDS011;66874;45.274;5.880;2023-09-19T19:12:31;4.40;;;1.10;;
77705;SDS011;66874;45.274;5.880;2023-09-19T19:14:57;2.80;;;0.90;;
77705;SDS011;66874;45.274;5.880;2023-09-19T19:17:25;3.28;;;1.00;;
77705;SDS011;66874;45.274;5.880;2023-09-19T19:19:51;1.45;;;1.08;;
77705;SDS011;66874;45.274;5.880;2023-09-19T19:22:17;2.72;;;1.20;;
77705;SDS011;66874;45.274;5.880;2023-09-19T19:27:10;3.10;;;1.15;;
77705;SDS011;66874;45.274;5.880;2023-09-19T19:29:35;4.97;;;1.00;;
77705;SDS011;66874;45.274;5.880;2023-09-19T19:32:01;2.63;;;1.95;;
77705;SDS011;66874;45.274;5.880;2023-09-19T19:34:26;0.95;;;0.82;;
77705;SDS011;66874;45.274;5.880;2023-09-19T19:36:52;1.23;;;1.00;;
77705;SDS011;66874;45.274;5.880;2023-09-19T19:39:17;1.33;;;0.85;;
77705;SDS011;66874;45.274;5.880;2023-09-19T19:41:43;1.98;;;1.05;;
77705;SDS011;66874;45.274;5.880;2023-09-19T19:44:09;1.95;;;1.15;;
77705;SDS011;66874;45.274;5.880;2023-09-19T19:46:34;1.35;;;1.20;;
77705;SDS011;66874;45.274;5.880;2023-09-19T19:48:59;2.40;;;1.40;;
77705;SDS011;66874;45.274;5.880;2023-09-19T19:51:25;4.18;;;1.20;;
77705;SDS011;66874;45.274;5.880;2023-09-19T19:53:51;3.00;;;1.15;;
77705;SDS011;66874;45.274;5.880;2023-09-19T19:56:19;0.93;;;0.82;;
77705;SDS011;66874;45.274;5.880;2023-09-19T19:58:46;1.88;;;1.30;;
77705;SDS011;66874;45.274;5.880;2023-09-19T20:01:13;2.95;;;1.17;;
77705;SDS011;66874;45.274;5.880;2023-09-19T20:03:38;1.80;;;0.93;;
77705;SDS011;66874;45.274;5.880;2023-09-19T20:06:04;1.50;;;0.95;;
77705;SDS011;66874;45.274;5.880;2023-09-19T20:08:30;5.75;;;1.27;;
77705;SDS011;66874;45.274;5.880;2023-09-19T20:11:03;3.78;;;1.38;;
77705;SDS011;66874;45.274;5.880;2023-09-19T20:13:29;5.15;;;1.42;;
77705;SDS011;66874;45.274;5.880;2023-09-19T20:15:56;1.33;;;1.23;;
77705;SDS011;66874;45.274;5.880;2023-09-19T20:18:22;5.40;;;1.37;;
77705;SDS011;66874;45.274;5.880;2023-09-19T20:20:49;4.03;;;0.95;;